Terminal Aerodrome Forecast
Issued by NWS

Home | Current Version | Previous Version | Text Only | Print | Product List | Glossary Off
Versions: 1 2 3 4 5 6 7 8 9 10 11 12 13 14 15 16 17 18 19 20 21 22 23 24

578
FTUS43 KLOT 090858 AAA
TAFDPA
TAF AMD
KDPA 090858Z 0909/1006 20008KT P6SM OVC030
      TEMPO 0909/0910 1SM -SN SCT009 OVC015
     FM091000 29011KT 4SM -SHSN BKN015 OVC020
     FM091300 32015G23KT P6SM -SHSN BKN020
     FM091500 33017G27KT P6SM BKN025 OVC040
     FM100000 29009KT P6SM BKN250=

USA.gov is the U.S. government's official web portal to all federal, state and local government web resources and services.